sensor_id;sensor_type;location;lat;lon;timestamp;temperature;humidity
68691;DHT22;55675;49.588;8.640;2022-09-01T00:01:15;19.50;63.90
68691;DHT22;55675;49.588;8.640;2022-09-01T00:03:48;19.50;63.80
68691;DHT22;55675;49.588;8.640;2022-09-01T00:06:18;19.50;64.50
68691;DHT22;55675;49.588;8.640;2022-09-01T00:08:55;19.50;64.40
68691;DHT22;55675;49.588;8.640;2022-09-01T00:11:22;19.50;64.70
68691;DHT22;55675;49.588;8.640;2022-09-01T00:13:49;19.40;64.70
68691;DHT22;55675;49.588;8.640;2022-09-01T00:16:16;19.40;64.70
68691;DHT22;55675;49.588;8.640;2022-09-01T00:18:47;19.50;64.90
68691;DHT22;55675;49.588;8.640;2022-09-01T00:21:17;19.40;64.90
68691;DHT22;55675;49.588;8.640;2022-09-01T00:23:43;19.40;65.40
68691;DHT22;55675;49.588;8.640;2022-09-01T00:26:09;19.40;65.50
68691;DHT22;55675;49.588;8.640;2022-09-01T00:28:36;19.40;65.70
68691;DHT22;55675;49.588;8.640;2022-09-01T00:31:03;19.30;66.10
68691;DHT22;55675;49.588;8.640;2022-09-01T00:33:31;19.30;65.90
68691;DHT22;55675;49.588;8.640;2022-09-01T00:35:57;19.30;65.80
68691;DHT22;55675;49.588;8.640;2022-09-01T00:38:22;19.30;66.00
68691;DHT22;55675;49.588;8.640;2022-09-01T00:40:48;19.30;66.20
68691;DHT22;55675;49.588;8.640;2022-09-01T00:43:17;19.30;66.60
68691;DHT22;55675;49.588;8.640;2022-09-01T00:45:44;19.30;67.00
68691;DHT22;55675;49.588;8.640;2022-09-01T00:48:10;19.30;67.20
68691;DHT22;55675;49.588;8.640;2022-09-01T00:50:36;19.20;67.30
68691;DHT22;55675;49.588;8.640;2022-09-01T00:53:03;19.20;67.60
68691;DHT22;55675;49.588;8.640;2022-09-01T00:55:32;19.20;67.50
68691;DHT22;55675;49.588;8.640;2022-09-01T00:57:59;19.20;68.10
68691;DHT22;55675;49.588;8.640;2022-09-01T01:00:28;19.20;68.30
68691;DHT22;55675;49.588;8.640;2022-09-01T01:02:54;19.20;68.10
68691;DHT22;55675;49.588;8.640;2022-09-01T01:05:22;19.20;68.20
68691;DHT22;55675;49.588;8.640;2022-09-01T01:07:48;19.20;68.10
68691;DHT22;55675;49.588;8.640;2022-09-01T01:10:16;19.20;68.30
68691;DHT22;55675;49.588;8.640;2022-09-01T01:12:43;19.10;68.50
68691;DHT22;55675;49.588;8.640;2022-09-01T01:15:13;19.10;68.60
68691;DHT22;55675;49.588;8.640;2022-09-01T01:17:39;19.00;69.20
68691;DHT22;55675;49.588;8.640;2022-09-01T01:20:06;19.10;69.20
68691;DHT22;55675;49.588;8.640;2022-09-01T01:25:41;19.00;69.80
68691;DHT22;55675;49.588;8.640;2022-09-01T01:28:08;19.00;69.90
68691;DHT22;55675;49.588;8.640;2022-09-01T01:30:37;19.00;69.90
68691;DHT22;55675;49.588;8.640;2022-09-01T01:33:04;19.00;69.90
68691;DHT22;55675;49.588;8.640;2022-09-01T01:35:30;19.00;69.80
68691;DHT22;55675;49.588;8.640;2022-09-01T01:37:57;19.00;70.10
68691;DHT22;55675;49.588;8.640;2022-09-01T01:40:22;18.90;70.60
68691;DHT22;55675;49.588;8.640;2022-09-01T01:42:51;18.90;70.70
68691;DHT22;55675;49.588;8.640;2022-09-01T01:45:20;18.90;70.70
68691;DHT22;55675;49.588;8.640;2022-09-01T01:47:48;18.80;70.60
68691;DHT22;55675;49.588;8.640;2022-09-01T01:50:31;18.90;70.90
68691;DHT22;55675;49.588;8.640;2022-09-01T01:53:03;18.90;70.50
68691;DHT22;55675;49.588;8.640;2022-09-01T01:55:29;18.90;70.70
68691;DHT22;55675;49.588;8.640;2022-09-01T01:57:56;18.90;70.60
68691;DHT22;55675;49.588;8.640;2022-09-01T02:00:25;18.90;70.50
68691;DHT22;55675;49.588;8.640;2022-09-01T02:02:52;18.80;70.70
68691;DHT22;55675;49.588;8.640;2022-09-01T02:05:30;18.90;71.20
68691;DHT22;55675;49.588;8.640;2022-09-01T02:08:02;18.80;71.40
68691;DHT22;55675;49.588;8.640;2022-09-01T02:10:34;18.80;71.80
68691;DHT22;55675;49.588;8.640;2022-09-01T02:13:03;18.80;71.80
68691;DHT22;55675;49.588;8.640;2022-09-01T02:15:33;18.80;71.70
68691;DHT22;55675;49.588;8.640;2022-09-01T02:18:08;18.80;71.60
68691;DHT22;55675;49.588;8.640;2022-09-01T02:20:34;18.80;71.80
68691;DHT22;55675;49.588;8.640;2022-09-01T02:22:59;18.80;71.30
68691;DHT22;55675;49.588;8.640;2022-09-01T02:25:34;18.70;72.10
68691;DHT22;55675;49.588;8.640;2022-09-01T02:28:00;18.70;72.60
68691;DHT22;55675;49.588;8.640;2022-09-01T02:30:29;18.70;73.40
68691;DHT22;55675;49.588;8.640;2022-09-01T02:32:58;18.60;73.30
68691;DHT22;55675;49.588;8.640;2022-09-01T02:35:24;18.60;73.40
68691;DHT22;55675;49.588;8.640;2022-09-01T02:37:53;18.60;73.60
68691;DHT22;55675;49.588;8.640;2022-09-01T02:40:22;18.50;73.70
68691;DHT22;55675;49.588;8.640;2022-09-01T02:42:48;18.50;74.00
68691;DHT22;55675;49.588;8.640;2022-09-01T02:45:17;18.50;73.30
68691;DHT22;55675;49.588;8.640;2022-09-01T02:47:44;18.60;73.80
68691;DHT22;55675;49.588;8.640;2022-09-01T02:50:11;18.50;73.90
68691;DHT22;55675;49.588;8.640;2022-09-01T02:52:41;18.50;74.10
68691;DHT22;55675;49.588;8.640;2022-09-01T02:55:08;18.50;74.10
68691;DHT22;55675;49.588;8.640;2022-09-01T02:57:34;18.50;73.90
68691;DHT22;55675;49.588;8.640;2022-09-01T03:00:00;18.40;73.90
68691;DHT22;55675;49.588;8.640;2022-09-01T03:02:26;18.40;74.20
68691;DHT22;55675;49.588;8.640;2022-09-01T03:04:54;18.30;74.10
68691;DHT22;55675;49.588;8.640;2022-09-01T03:07:20;18.40;74.00
68691;DHT22;55675;49.588;8.640;2022-09-01T03:09:48;18.30;74.30
68691;DHT22;55675;49.588;8.640;2022-09-01T03:12:14;18.30;74.60
68691;DHT22;55675;49.588;8.640;2022-09-01T03:14:39;18.30;75.00
68691;DHT22;55675;49.588;8.640;2022-09-01T03:17:05;18.20;75.10
68691;DHT22;55675;49.588;8.640;2022-09-01T03:19:30;18.10;75.40
68691;DHT22;55675;49.588;8.640;2022-09-01T03:22:00;18.10;75.50
68691;DHT22;55675;49.588;8.640;2022-09-01T03:24:26;18.10;75.80
68691;DHT22;55675;49.588;8.640;2022-09-01T03:26:51;18.00;76.20
68691;DHT22;55675;49.588;8.640;2022-09-01T03:29:18;18.00;76.60
68691;DHT22;55675;49.588;8.640;2022-09-01T03:31:44;18.00;77.50
68691;DHT22;55675;49.588;8.640;2022-09-01T03:34:10;17.90;77.00
68691;DHT22;55675;49.588;8.640;2022-09-01T03:36:37;17.90;77.20
68691;DHT22;55675;49.588;8.640;2022-09-01T03:39:03;17.90;77.50
68691;DHT22;55675;49.588;8.640;2022-09-01T03:41:29;17.90;77.70
68691;DHT22;55675;49.588;8.640;2022-09-01T03:43:55;17.90;77.90
68691;DHT22;55675;49.588;8.640;2022-09-01T03:46:25;17.90;78.20
68691;DHT22;55675;49.588;8.640;2022-09-01T03:48:55;17.80;78.50
68691;DHT22;55675;49.588;8.640;2022-09-01T03:51:23;17.80;78.70
68691;DHT22;55675;49.588;8.640;2022-09-01T03:53:52;17.80;79.20
68691;DHT22;55675;49.588;8.640;2022-09-01T03:56:22;17.70;78.70
68691;DHT22;55675;49.588;8.640;2022-09-01T03:58:52;17.70;78.90
68691;DHT22;55675;49.588;8.640;2022-09-01T04:01:19;17.60;79.10
68691;DHT22;55675;49.588;8.640;2022-09-01T04:03:45;17.60;79.50
68691;DHT22;55675;49.588;8.640;2022-09-01T04:06:14;17.60;79.60
68691;DHT22;55675;49.588;8.640;2022-09-01T04:08:43;17.50;79.90
68691;DHT22;55675;49.588;8.640;2022-09-01T04:11:16;17.50;80.10
68691;DHT22;55675;49.588;8.640;2022-09-01T04:13:49;17.50;80.20
68691;DHT22;55675;49.588;8.640;2022-09-01T04:16:21;17.40;80.40
68691;DHT22;55675;49.588;8.640;2022-09-01T04:19:06;17.40;80.50
68691;DHT22;55675;49.588;8.640;2022-09-01T04:21:41;17.40;80.60
68691;DHT22;55675;49.588;8.640;2022-09-01T04:24:07;17.30;80.70
68691;DHT22;55675;49.588;8.640;2022-09-01T04:26:34;17.30;81.30
68691;DHT22;55675;49.588;8.640;2022-09-01T04:29:00;17.30;81.20
68691;DHT22;55675;49.588;8.640;2022-09-01T04:31:26;17.30;81.50
68691;DHT22;55675;49.588;8.640;2022-09-01T04:33:52;17.20;81.70
68691;DHT22;55675;49.588;8.640;2022-09-01T04:36:21;17.20;82.10
68691;DHT22;55675;49.588;8.640;2022-09-01T04:38:53;17.20;82.80
68691;DHT22;55675;49.588;8.640;2022-09-01T04:41:21;17.20;82.90
68691;DHT22;55675;49.588;8.640;2022-09-01T04:43:48;17.20;83.20
68691;DHT22;55675;49.588;8.640;2022-09-01T04:46:17;17.20;83.40
68691;DHT22;55675;49.588;8.640;2022-09-01T04:48:43;17.20;84.50
68691;DHT22;55675;49.588;8.640;2022-09-01T04:51:10;17.20;84.30
68691;DHT22;55675;49.588;8.640;2022-09-01T04:53:37;17.20;84.50
68691;DHT22;55675;49.588;8.640;2022-09-01T04:56:04;17.30;84.60
68691;DHT22;55675;49.588;8.640;2022-09-01T04:58:30;17.30;84.70
68691;DHT22;55675;49.588;8.640;2022-09-01T05:00:56;17.30;84.60
68691;DHT22;55675;49.588;8.640;2022-09-01T05:03:25;17.30;84.60
68691;DHT22;55675;49.588;8.640;2022-09-01T05:05:51;17.30;84.10
68691;DHT22;55675;49.588;8.640;2022-09-01T05:08:19;17.40;84.10
68691;DHT22;55675;49.588;8.640;2022-09-01T05:10:48;17.40;83.90
68691;DHT22;55675;49.588;8.640;2022-09-01T05:13:19;17.40;83.60
68691;DHT22;55675;49.588;8.640;2022-09-01T05:15:47;17.50;83.40
68691;DHT22;55675;49.588;8.640;2022-09-01T05:18:18;17.50;83.00
68691;DHT22;55675;49.588;8.640;2022-09-01T05:20:49;17.60;82.70
68691;DHT22;55675;49.588;8.640;2022-09-01T05:23:16;17.70;82.30
68691;DHT22;55675;49.588;8.640;2022-09-01T05:25:47;17.80;81.90
68691;DHT22;55675;49.588;8.640;2022-09-01T05:28:15;17.90;81.40
68691;DHT22;55675;49.588;8.640;2022-09-01T05:30:43;17.90;81.20
68691;DHT22;55675;49.588;8.640;2022-09-01T05:33:10;18.00;81.10
68691;DHT22;55675;49.588;8.640;2022-09-01T05:35:38;18.10;81.20
68691;DHT22;55675;49.588;8.640;2022-09-01T05:38:06;18.20;80.50
68691;DHT22;55675;49.588;8.640;2022-09-01T05:40:41;18.30;80.30
68691;DHT22;55675;49.588;8.640;2022-09-01T05:43:10;18.40;79.90
68691;DHT22;55675;49.588;8.640;2022-09-01T05:45:38;18.60;79.50
68691;DHT22;55675;49.588;8.640;2022-09-01T05:48:07;18.70;78.70
68691;DHT22;55675;49.588;8.640;2022-09-01T05:50:34;18.80;77.90
68691;DHT22;55675;49.588;8.640;2022-09-01T05:52:59;18.90;77.30
68691;DHT22;55675;49.588;8.640;2022-09-01T05:55:25;19.10;77.20
68691;DHT22;55675;49.588;8.640;2022-09-01T05:57:52;19.20;75.70
68691;DHT22;55675;49.588;8.640;2022-09-01T06:00:18;19.30;75.40
68691;DHT22;55675;49.588;8.640;2022-09-01T06:02:45;19.50;75.20
68691;DHT22;55675;49.588;8.640;2022-09-01T06:05:11;19.60;74.30
68691;DHT22;55675;49.588;8.640;2022-09-01T06:07:39;19.70;74.40
68691;DHT22;55675;49.588;8.640;2022-09-01T06:10:07;19.80;73.50
68691;DHT22;55675;49.588;8.640;2022-09-01T06:12:33;19.90;73.50
68691;DHT22;55675;49.588;8.640;2022-09-01T06:14:59;20.00;72.90
68691;DHT22;55675;49.588;8.640;2022-09-01T06:17:26;20.10;71.50
68691;DHT22;55675;49.588;8.640;2022-09-01T06:19:55;20.00;71.00
68691;DHT22;55675;49.588;8.640;2022-09-01T06:22:21;20.00;72.00
68691;DHT22;55675;49.588;8.640;2022-09-01T06:24:48;20.10;71.90
68691;DHT22;55675;49.588;8.640;2022-09-01T06:27:16;20.20;71.50
68691;DHT22;55675;49.588;8.640;2022-09-01T06:29:44;20.40;71.10
68691;DHT22;55675;49.588;8.640;2022-09-01T06:32:15;20.60;70.80
68691;DHT22;55675;49.588;8.640;2022-09-01T06:34:42;20.70;69.40
68691;DHT22;55675;49.588;8.640;2022-09-01T06:37:12;20.70;68.60
68691;DHT22;55675;49.588;8.640;2022-09-01T06:39:37;20.90;68.20
68691;DHT22;55675;49.588;8.640;2022-09-01T06:42:03;20.90;67.70
68691;DHT22;55675;49.588;8.640;2022-09-01T06:44:29;21.00;67.80
68691;DHT22;55675;49.588;8.640;2022-09-01T06:46:56;21.00;67.90
68691;DHT22;55675;49.588;8.640;2022-09-01T06:49:22;21.10;66.50
68691;DHT22;55675;49.588;8.640;2022-09-01T06:51:53;21.10;66.60
68691;DHT22;55675;49.588;8.640;2022-09-01T06:54:19;21.20;66.70
68691;DHT22;55675;49.588;8.640;2022-09-01T06:56:45;21.20;66.40
68691;DHT22;55675;49.588;8.640;2022-09-01T06:59:11;21.30;66.00
68691;DHT22;55675;49.588;8.640;2022-09-01T07:01:40;21.30;65.50
68691;DHT22;55675;49.588;8.640;2022-09-01T07:04:06;21.50;66.50
68691;DHT22;55675;49.588;8.640;2022-09-01T07:06:31;21.60;64.20
68691;DHT22;55675;49.588;8.640;2022-09-01T07:08:58;21.70;64.70
68691;DHT22;55675;49.588;8.640;2022-09-01T07:11:28;21.80;64.80
68691;DHT22;55675;49.588;8.640;2022-09-01T07:13:58;22.00;63.60
68691;DHT22;55675;49.588;8.640;2022-09-01T07:16:26;22.00;62.50
68691;DHT22;55675;49.588;8.640;2022-09-01T07:18:56;22.00;62.50
68691;DHT22;55675;49.588;8.640;2022-09-01T07:21:23;22.00;63.00
68691;DHT22;55675;49.588;8.640;2022-09-01T07:23:49;22.10;62.40
68691;DHT22;55675;49.588;8.640;2022-09-01T07:26:17;22.10;61.90
68691;DHT22;55675;49.588;8.640;2022-09-01T07:28:47;22.10;62.40
68691;DHT22;55675;49.588;8.640;2022-09-01T07:31:22;22.30;61.90
68691;DHT22;55675;49.588;8.640;2022-09-01T07:33:48;22.50;61.30
68691;DHT22;55675;49.588;8.640;2022-09-01T07:36:17;22.60;61.10
68691;DHT22;55675;49.588;8.640;2022-09-01T07:38:43;22.60;60.30
68691;DHT22;55675;49.588;8.640;2022-09-01T07:41:10;22.70;59.40
68691;DHT22;55675;49.588;8.640;2022-09-01T07:43:39;22.70;59.80
68691;DHT22;55675;49.588;8.640;2022-09-01T07:46:10;22.80;59.70
68691;DHT22;55675;49.588;8.640;2022-09-01T07:48:36;22.90;59.30
68691;DHT22;55675;49.588;8.640;2022-09-01T07:51:03;23.10;59.30
68691;DHT22;55675;49.588;8.640;2022-09-01T07:53:31;23.30;59.00
68691;DHT22;55675;49.588;8.640;2022-09-01T07:56:00;23.40;58.10
68691;DHT22;55675;49.588;8.640;2022-09-01T07:58:32;23.40;57.90
68691;DHT22;55675;49.588;8.640;2022-09-01T08:00:58;23.60;57.60
68691;DHT22;55675;49.588;8.640;2022-09-01T08:03:27;23.60;57.80
68691;DHT22;55675;49.588;8.640;2022-09-01T08:05:53;23.80;57.80
68691;DHT22;55675;49.588;8.640;2022-09-01T08:08:22;23.90;57.70
68691;DHT22;55675;49.588;8.640;2022-09-01T08:10:48;24.10;56.80
68691;DHT22;55675;49.588;8.640;2022-09-01T08:13:15;24.20;55.90
68691;DHT22;55675;49.588;8.640;2022-09-01T08:15:41;24.40;55.80
68691;DHT22;55675;49.588;8.640;2022-09-01T08:18:07;24.60;55.70
68691;DHT22;55675;49.588;8.640;2022-09-01T08:20:33;24.70;54.30
68691;DHT22;55675;49.588;8.640;2022-09-01T08:23:02;24.80;53.80
68691;DHT22;55675;49.588;8.640;2022-09-01T08:25:29;25.00;52.90
68691;DHT22;55675;49.588;8.640;2022-09-01T08:27:55;25.10;52.20
68691;DHT22;55675;49.588;8.640;2022-09-01T08:30:21;25.20;51.70
68691;DHT22;55675;49.588;8.640;2022-09-01T08:32:46;25.40;51.60
68691;DHT22;55675;49.588;8.640;2022-09-01T08:35:13;25.50;51.70
68691;DHT22;55675;49.588;8.640;2022-09-01T08:37:41;25.60;50.90
68691;DHT22;55675;49.588;8.640;2022-09-01T08:40:07;25.70;50.00
68691;DHT22;55675;49.588;8.640;2022-09-01T08:47:55;25.80;50.80
68691;DHT22;55675;49.588;8.640;2022-09-01T08:50:21;25.90;49.30
68691;DHT22;55675;49.588;8.640;2022-09-01T08:53:42;25.90;50.10
68691;DHT22;55675;49.588;8.640;2022-09-01T08:55:48;25.90;50.10
68691;DHT22;55675;49.588;8.640;2022-09-01T08:58:16;25.80;49.50
68691;DHT22;55675;49.588;8.640;2022-09-01T09:00:45;25.70;49.90
68691;DHT22;55675;49.588;8.640;2022-09-01T09:03:40;25.50;50.00
68691;DHT22;55675;49.588;8.640;2022-09-01T09:06:25;25.50;50.50
68691;DHT22;55675;49.588;8.640;2022-09-01T09:09:00;25.40;50.80
68691;DHT22;55675;49.588;8.640;2022-09-01T09:11:40;25.50;50.30
68691;DHT22;55675;49.588;8.640;2022-09-01T09:16:58;26.00;50.40
68691;DHT22;55675;49.588;8.640;2022-09-01T09:19:32;26.20;50.00
68691;DHT22;55675;49.588;8.640;2022-09-01T09:22:01;26.40;49.50
68691;DHT22;55675;49.588;8.640;2022-09-01T09:24:29;26.50;48.40
68691;DHT22;55675;49.588;8.640;2022-09-01T09:27:19;26.50;47.60
68691;DHT22;55675;49.588;8.640;2022-09-01T09:29:53;26.70;48.00
68691;DHT22;55675;49.588;8.640;2022-09-01T09:32:20;27.00;47.30
68691;DHT22;55675;49.588;8.640;2022-09-01T09:34:46;27.10;47.20
68691;DHT22;55675;49.588;8.640;2022-09-01T09:37:25;27.10;46.80
68691;DHT22;55675;49.588;8.640;2022-09-01T09:40:13;27.20;46.50
68691;DHT22;55675;49.588;8.640;2022-09-01T09:42:56;27.30;46.20
68691;DHT22;55675;49.588;8.640;2022-09-01T09:45:29;27.30;45.50
68691;DHT22;55675;49.588;8.640;2022-09-01T09:47:57;27.30;44.00
68691;DHT22;55675;49.588;8.640;2022-09-01T09:50:26;27.10;43.90
68691;DHT22;55675;49.588;8.640;2022-09-01T09:53:11;27.10;44.50
68691;DHT22;55675;49.588;8.640;2022-09-01T09:55:51;26.80;45.10
68691;DHT22;55675;49.588;8.640;2022-09-01T09:58:20;26.80;47.20
68691;DHT22;55675;49.588;8.640;2022-09-01T10:01:05;26.80;45.90
68691;DHT22;55675;49.588;8.640;2022-09-01T10:03:37;26.80;45.40
68691;DHT22;55675;49.588;8.640;2022-09-01T10:06:03;26.70;45.40
68691;DHT22;55675;49.588;8.640;2022-09-01T10:11:05;26.50;46.00
68691;DHT22;55675;49.588;8.640;2022-09-01T10:13:31;26.50;46.50
68691;DHT22;55675;49.588;8.640;2022-09-01T10:16:21;26.50;46.90
68691;DHT22;55675;49.588;8.640;2022-09-01T10:18:49;26.40;45.70
68691;DHT22;55675;49.588;8.640;2022-09-01T10:21:27;26.40;46.30
68691;DHT22;55675;49.588;8.640;2022-09-01T10:23:56;26.40;45.90
68691;DHT22;55675;49.588;8.640;2022-09-01T10:26:31;26.50;46.20
68691;DHT22;55675;49.588;8.640;2022-09-01T10:29:12;26.50;45.40
68691;DHT22;55675;49.588;8.640;2022-09-01T10:31:40;26.60;45.30
68691;DHT22;55675;49.588;8.640;2022-09-01T10:34:07;26.70;45.30
68691;DHT22;55675;49.588;8.640;2022-09-01T10:36:41;26.80;44.90
68691;DHT22;55675;49.588;8.640;2022-09-01T10:39:18;26.90;44.40
68691;DHT22;55675;49.588;8.640;2022-09-01T10:41:52;27.00;45.00
68691;DHT22;55675;49.588;8.640;2022-09-01T10:44:35;27.10;44.80
68691;DHT22;55675;49.588;8.640;2022-09-01T10:47:23;27.00;44.10
68691;DHT22;55675;49.588;8.640;2022-09-01T10:52:51;27.10;44.00
68691;DHT22;55675;49.588;8.640;2022-09-01T10:55:37;27.10;44.10
68691;DHT22;55675;49.588;8.640;2022-09-01T10:58:34;27.20;42.70
68691;DHT22;55675;49.588;8.640;2022-09-01T11:01:02;27.10;43.20
68691;DHT22;55675;49.588;8.640;2022-09-01T11:03:34;27.10;43.00
68691;DHT22;55675;49.588;8.640;2022-09-01T11:06:07;27.10;43.20
68691;DHT22;55675;49.588;8.640;2022-09-01T11:11:07;27.00;43.80
68691;DHT22;55675;49.588;8.640;2022-09-01T11:13:45;26.90;43.90
68691;DHT22;55675;49.588;8.640;2022-09-01T11:21:46;27.00;44.00
68691;DHT22;55675;49.588;8.640;2022-09-01T11:27:11;27.20;43.50
68691;DHT22;55675;49.588;8.640;2022-09-01T11:29:52;27.40;43.50
68691;DHT22;55675;49.588;8.640;2022-09-01T11:32:21;27.50;43.00
68691;DHT22;55675;49.588;8.640;2022-09-01T11:34:50;27.60;42.40
68691;DHT22;55675;49.588;8.640;2022-09-01T11:37:20;27.70;42.10
68691;DHT22;55675;49.588;8.640;2022-09-01T11:39:52;27.70;42.40
68691;DHT22;55675;49.588;8.640;2022-09-01T11:42:31;27.70;42.60
68691;DHT22;55675;49.588;8.640;2022-09-01T11:45:16;27.60;42.60
68691;DHT22;55675;49.588;8.640;2022-09-01T11:47:45;27.50;43.10
68691;DHT22;55675;49.588;8.640;2022-09-01T11:50:24;27.50;42.40
68691;DHT22;55675;49.588;8.640;2022-09-01T11:52:56;27.40;43.10
68691;DHT22;55675;49.588;8.640;2022-09-01T11:55:37;27.30;43.90
68691;DHT22;55675;49.588;8.640;2022-09-01T11:58:05;27.30;43.10
68691;DHT22;55675;49.588;8.640;2022-09-01T12:00:36;27.20;43.10
68691;DHT22;55675;49.588;8.640;2022-09-01T12:03:05;27.20;43.60
68691;DHT22;55675;49.588;8.640;2022-09-01T12:05:43;27.20;43.90
68691;DHT22;55675;49.588;8.640;2022-09-01T12:08:14;27.20;44.10
68691;DHT22;55675;49.588;8.640;2022-09-01T12:10:43;27.30;43.90
68691;DHT22;55675;49.588;8.640;2022-09-01T12:13:17;27.40;43.60
68691;DHT22;55675;49.588;8.640;2022-09-01T12:15:43;27.50;43.10
68691;DHT22;55675;49.588;8.640;2022-09-01T12:18:21;27.60;43.70
68691;DHT22;55675;49.588;8.640;2022-09-01T12:20:49;27.80;42.90
68691;DHT22;55675;49.588;8.640;2022-09-01T12:23:17;28.00;42.60
68691;DHT22;55675;49.588;8.640;2022-09-01T12:25:43;28.20;41.90
68691;DHT22;55675;49.588;8.640;2022-09-01T12:28:10;28.50;41.80
68691;DHT22;55675;49.588;8.640;2022-09-01T12:30:36;29.00;41.10
68691;DHT22;55675;49.588;8.640;2022-09-01T12:33:06;29.40;39.80
68691;DHT22;55675;49.588;8.640;2022-09-01T12:35:34;29.40;39.20
68691;DHT22;55675;49.588;8.640;2022-09-01T12:40:45;29.30;39.90
68691;DHT22;55675;49.588;8.640;2022-09-01T12:43:43;29.10;38.20
68691;DHT22;55675;49.588;8.640;2022-09-01T12:46:09;28.80;39.70
68691;DHT22;55675;49.588;8.640;2022-09-01T12:48:37;28.60;40.30
68691;DHT22;55675;49.588;8.640;2022-09-01T12:51:24;28.50;40.20
68691;DHT22;55675;49.588;8.640;2022-09-01T12:53:57;28.40;40.20
68691;DHT22;55675;49.588;8.640;2022-09-01T12:56:35;28.40;40.80
68691;DHT22;55675;49.588;8.640;2022-09-01T12:59:19;28.30;40.40
68691;DHT22;55675;49.588;8.640;2022-09-01T13:01:45;28.40;40.80
68691;DHT22;55675;49.588;8.640;2022-09-01T13:04:12;28.50;40.10
68691;DHT22;55675;49.588;8.640;2022-09-01T13:06:38;28.70;40.10
68691;DHT22;55675;49.588;8.640;2022-09-01T13:09:04;28.80;39.90
68691;DHT22;55675;49.588;8.640;2022-09-01T13:11:30;29.00;38.90
68691;DHT22;55675;49.588;8.640;2022-09-01T13:13:55;29.10;38.60
68691;DHT22;55675;49.588;8.640;2022-09-01T13:16:21;29.40;38.70
68691;DHT22;55675;49.588;8.640;2022-09-01T13:18:47;29.70;37.90
68691;DHT22;55675;49.588;8.640;2022-09-01T13:21:13;29.90;36.90
68691;DHT22;55675;49.588;8.640;2022-09-01T13:23:39;30.20;38.10
68691;DHT22;55675;49.588;8.640;2022-09-01T13:26:04;30.50;37.90
68691;DHT22;55675;49.588;8.640;2022-09-01T13:28:30;30.80;36.60
68691;DHT22;55675;49.588;8.640;2022-09-01T13:30:59;31.00;34.90
68691;DHT22;55675;49.588;8.640;2022-09-01T13:33:26;31.30;33.90
68691;DHT22;55675;49.588;8.640;2022-09-01T13:35:53;32.20;34.30
68691;DHT22;55675;49.588;8.640;2022-09-01T13:38:19;33.70;31.50
68691;DHT22;55675;49.588;8.640;2022-09-01T13:40:45;33.50;30.70
68691;DHT22;55675;49.588;8.640;2022-09-01T13:43:16;33.30;31.80
68691;DHT22;55675;49.588;8.640;2022-09-01T13:45:42;32.90;30.80
68691;DHT22;55675;49.588;8.640;2022-09-01T13:48:08;32.50;31.30
68691;DHT22;55675;49.588;8.640;2022-09-01T13:50:35;32.00;31.20
68691;DHT22;55675;49.588;8.640;2022-09-01T13:53:01;31.60;31.80
68691;DHT22;55675;49.588;8.640;2022-09-01T13:55:29;31.30;32.40
68691;DHT22;55675;49.588;8.640;2022-09-01T13:57:56;31.00;32.70
68691;DHT22;55675;49.588;8.640;2022-09-01T14:00:25;30.80;33.50
68691;DHT22;55675;49.588;8.640;2022-09-01T14:02:55;30.60;34.40
68691;DHT22;55675;49.588;8.640;2022-09-01T14:05:23;30.40;34.70
68691;DHT22;55675;49.588;8.640;2022-09-01T14:07:50;30.20;34.50
68691;DHT22;55675;49.588;8.640;2022-09-01T14:10:17;29.90;34.70
68691;DHT22;55675;49.588;8.640;2022-09-01T14:12:44;29.80;36.10
68691;DHT22;55675;49.588;8.640;2022-09-01T14:15:14;29.60;36.20
68691;DHT22;55675;49.588;8.640;2022-09-01T14:17:40;29.40;36.20
68691;DHT22;55675;49.588;8.640;2022-09-01T14:20:10;29.40;36.60
68691;DHT22;55675;49.588;8.640;2022-09-01T14:22:37;29.20;36.40
68691;DHT22;55675;49.588;8.640;2022-09-01T14:25:05;29.10;36.70
68691;DHT22;55675;49.588;8.640;2022-09-01T14:27:30;29.10;37.10
68691;DHT22;55675;49.588;8.640;2022-09-01T14:29:56;29.10;37.30
68691;DHT22;55675;49.588;8.640;2022-09-01T14:32:22;29.10;37.60
68691;DHT22;55675;49.588;8.640;2022-09-01T14:34:54;29.20;37.80
68691;DHT22;55675;49.588;8.640;2022-09-01T14:37:21;30.20;36.80
68691;DHT22;55675;49.588;8.640;2022-09-01T14:39:52;33.60;33.50
68691;DHT22;55675;49.588;8.640;2022-09-01T14:42:17;34.50;30.00
68691;DHT22;55675;49.588;8.640;2022-09-01T14:44:45;34.30;30.00
68691;DHT22;55675;49.588;8.640;2022-09-01T14:47:11;34.00;29.70
68691;DHT22;55675;49.588;8.640;2022-09-01T14:49:37;33.90;30.00
68691;DHT22;55675;49.588;8.640;2022-09-01T14:52:04;34.20;29.80
68691;DHT22;55675;49.588;8.640;2022-09-01T14:54:33;36.70;28.40
68691;DHT22;55675;49.588;8.640;2022-09-01T14:57:00;40.00;25.50
68691;DHT22;55675;49.588;8.640;2022-09-01T14:59:25;42.60;23.20
68691;DHT22;55675;49.588;8.640;2022-09-01T15:01:51;44.80;21.00
68691;DHT22;55675;49.588;8.640;2022-09-01T15:04:17;46.30;19.10
68691;DHT22;55675;49.588;8.640;2022-09-01T15:06:42;47.10;18.50
68691;DHT22;55675;49.588;8.640;2022-09-01T15:09:08;48.30;17.10
68691;DHT22;55675;49.588;8.640;2022-09-01T15:11:33;49.00;16.80
68691;DHT22;55675;49.588;8.640;2022-09-01T15:13:59;48.30;16.20
68691;DHT22;55675;49.588;8.640;2022-09-01T15:16:25;46.20;16.90
68691;DHT22;55675;49.588;8.640;2022-09-01T15:18:53;45.50;17.90
68691;DHT22;55675;49.588;8.640;2022-09-01T15:21:29;44.40;18.30
68691;DHT22;55675;49.588;8.640;2022-09-01T15:23:56;43.20;19.20
68691;DHT22;55675;49.588;8.640;2022-09-01T15:26:22;42.70;19.90
68691;DHT22;55675;49.588;8.640;2022-09-01T15:28:48;42.20;19.60
68691;DHT22;55675;49.588;8.640;2022-09-01T15:31:16;41.00;20.50
68691;DHT22;55675;49.588;8.640;2022-09-01T15:33:43;39.90;21.50
68691;DHT22;55675;49.588;8.640;2022-09-01T15:36:15;39.50;22.40
68691;DHT22;55675;49.588;8.640;2022-09-01T15:38:41;39.40;23.10
68691;DHT22;55675;49.588;8.640;2022-09-01T15:41:06;40.40;21.90
68691;DHT22;55675;49.588;8.640;2022-09-01T15:43:33;40.40;22.40
68691;DHT22;55675;49.588;8.640;2022-09-01T15:45:59;39.70;21.90
68691;DHT22;55675;49.588;8.640;2022-09-01T15:48:27;38.70;22.70
68691;DHT22;55675;49.588;8.640;2022-09-01T15:50:56;37.60;23.60
68691;DHT22;55675;49.588;8.640;2022-09-01T15:53:26;36.50;24.30
68691;DHT22;55675;49.588;8.640;2022-09-01T15:55:52;35.60;25.00
68691;DHT22;55675;49.588;8.640;2022-09-01T15:58:17;35.60;26.10
68691;DHT22;55675;49.588;8.640;2022-09-01T16:00:44;36.30;25.50
68691;DHT22;55675;49.588;8.640;2022-09-01T16:03:10;37.60;24.30
68691;DHT22;55675;49.588;8.640;2022-09-01T16:05:37;38.80;23.60
68691;DHT22;55675;49.588;8.640;2022-09-01T16:08:04;39.20;22.50
68691;DHT22;55675;49.588;8.640;2022-09-01T16:10:32;39.00;22.80
68691;DHT22;55675;49.588;8.640;2022-09-01T16:12:59;39.80;22.60